Aetna, Tennessee
Current Conditions -  °F | °C
As of 10:35 AM on Friday 21 Nov 2014 (Local Time) from KMRC Reporting Station
Clear Clear  
Wind Chill:   Ceiling: Unl
Heat Index:   Visibility: 10mi
Dew Point: -3°   Wind: 3mph
Humidity: 46%   Direction: 90°E
Pressure: 30.42"   Gusts: NA
Location:  35.7514°N, 87.5392°W
Report Text: KMRC 211635Z AUTO 09003KT 10SM CLR 08/M03 A3042 RMK
Loading
Personal Weather Stations






























Interactive Weather Map New forecast layout! Learn more

10-Day Weather Forecast

Advertisements
Track Severe Weather on mobile